Time;durP1;ratioP1;P1;durP2;ratioP2;P2;SDS_P1;SDS_P2;PMS_P1;PMS_P2;Temp;Humidity;BMP_temperature;BMP_pressure;BME280_temperature;BME280_humidity;BME280_pressure;Samples;Min_cycle;Max_cycle;Signal;HPM_P1;HPM_P2
2022/10/26 00:02:22;;;;;;;14.75;7.15;;;11.70;99.90;;;;;;4974050;28;20055;-74
2022/10/26 00:04:48;;;;;;;10.93;5.93;;;11.70;99.90;;;;;;4992769;28;20049;-74
2022/10/26 00:07:13;;;;;;;10.68;6.70;;;11.60;99.90;;;;;;4975795;28;20046;-74
2022/10/26 00:09:39;;;;;;;11.48;7.00;;;11.70;99.90;;;;;;4992444;28;20039;-74
2022/10/26 00:12:05;;;;;;;12.30;6.35;;;11.70;99.90;;;;;;4976367;28;20064;-74
2022/10/26 00:14:30;;;;;;;12.73;6.57;;;11.70;99.90;;;;;;4975369;28;20414;-75
2022/10/26 00:16:56;;;;;;;12.93;7.32;;;11.60;99.90;;;;;;4990529;28;20130;-75
2022/10/26 00:19:22;;;;;;;11.88;6.85;;;11.60;99.90;;;;;;4976491;28;20112;-75
2022/10/26 00:21:47;;;;;;;11.43;6.82;;;11.70;99.90;;;;;;4976313;28;20544;-75
2022/10/26 00:24:14;;;;;;;10.32;6.60;;;11.60;99.90;;;;;;4990060;28;20039;-75
2022/10/26 00:26:40;;;;;;;12.07;6.78;;;11.60;99.90;;;;;;5014702;28;20038;-75
2022/10/26 00:29:06;;;;;;;13.80;6.55;;;11.70;99.90;;;;;;4992332;28;20085;-74
2022/10/26 00:31:31;;;;;;;13.75;7.13;;;11.70;99.90;;;;;;4992369;28;20049;-74
2022/10/26 00:33:57;;;;;;;13.10;6.65;;;11.70;99.90;;;;;;4991871;28;20037;-74
2022/10/26 00:36:24;;;;;;;12.98;6.97;;;11.80;99.90;;;;;;4991631;28;20496;-75
2022/10/26 00:38:55;;;;;;;12.55;7.03;;;11.70;99.90;;;;;;4992391;28;20121;-75
2022/10/26 00:41:23;;;;;;;12.93;6.38;;;11.60;99.90;;;;;;4976350;28;20431;-75
2022/10/26 00:43:49;;;;;;;13.82;7.03;;;11.60;99.90;;;;;;4990690;28;20134;-74
2022/10/26 00:46:22;;;;;;;11.75;7.10;;;11.60;99.90;;;;;;4989897;28;20034;-74
2022/10/26 00:49:07;;;;;;;;;;;11.50;99.90;;;;;;5029501;28;20076;-74
2022/10/26 00:51:45;;;;;;;10.32;6.72;;;11.50;99.90;;;;;;4992126;28;20285;-74
2022/10/26 00:54:14;;;;;;;10.57;6.40;;;11.50;99.90;;;;;;4975591;28;20042;-74
2022/10/26 00:56:41;;;;;;;11.50;6.53;;;11.40;99.90;;;;;;4991173;28;20133;-74
2022/10/26 00:59:09;;;;;;;12.38;6.88;;;11.40;99.90;;;;;;4991911;28;20062;-74
2022/10/26 01:01:39;;;;;;;11.60;7.15;;;11.40;99.90;;;;;;4992086;28;20061;-75
2022/10/26 01:04:05;;;;;;;11.80;6.82;;;11.40;99.90;;;;;;4991046;28;20053;-74
2022/10/26 01:06:32;;;;;;;10.60;6.28;;;11.50;99.90;;;;;;4991377;28;20038;-74
2022/10/26 01:08:57;;;;;;;11.38;7.25;;;11.50;99.90;;;;;;5010885;28;20389;-74
2022/10/26 01:11:23;;;;;;;13.15;7.35;;;11.40;99.90;;;;;;5012268;28;20042;-74
2022/10/26 01:13:51;;;;;;;10.65;7.05;;;11.40;99.90;;;;;;4994974;28;20045;-74
2022/10/26 01:16:38;;;;;;;10.30;6.20;;;11.40;99.90;;;;;;4988901;28;20035;-74
2022/10/26 01:19:22;;;;;;;12.10;6.78;;;11.30;99.90;;;;;;4976028;28;20485;-74
2022/10/26 01:21:55;;;;;;;12.50;6.30;;;11.30;99.90;;;;;;4975943;28;20045;-74
2022/10/26 01:24:28;;;;;;;9.65;6.68;;;11.20;99.90;;;;;;4988088;28;20045;-74
2022/10/26 01:27:01;;;;;;;10.85;6.55;;;11.20;99.90;;;;;;4977924;28;20081;-74
2022/10/26 01:30:04;;;;;;;12.75;6.70;;;11.20;99.90;;;;;;5009974;28;20467;-74
2022/10/26 01:32:40;;;;;;;11.20;6.38;;;11.20;99.90;;;;;;4995207;28;20488;-74
2022/10/26 01:35:11;;;;;;;10.73;6.85;;;11.20;99.90;;;;;;4995395;28;20134;-74
2022/10/26 01:37:44;;;;;;;14.00;6.97;;;11.20;99.90;;;;;;4994269;28;20093;-74
2022/10/26 01:40:27;;;;;;;12.00;6.95;;;11.20;99.90;;;;;;4995187;28;20320;-74
2022/10/26 01:42:56;;;;;;;11.55;6.97;;;11.20;99.90;;;;;;4994256;28;20046;-74
2022/10/26 01:45:24;;;;;;;12.30;6.65;;;11.20;99.90;;;;;;5009981;28;20042;-74
2022/10/26 01:47:51;;;;;;;10.18;6.88;;;11.10;99.90;;;;;;4992743;28;20523;-74
2022/10/26 01:50:18;;;;;;;12.48;7.18;;;11.10;99.90;;;;;;4995041;28;20432;-74
2022/10/26 01:52:44;;;;;;;10.90;6.80;;;11.10;99.90;;;;;;4977824;28;20034;-74
2022/10/26 01:55:37;;;;;;;11.48;6.85;;;11.10;99.90;;;;;;4994778;28;20121;-74
2022/10/26 01:58:17;;;;;;;11.55;6.85;;;11.10;99.90;;;;;;4966775;28;20535;-74
2022/10/26 02:00:58;;;;;;;12.45;6.93;;;11.20;99.90;;;;;;5010992;28;20505;-74
2022/10/26 02:03:53;;;;;;;12.10;6.97;;;11.10;99.90;;;;;;4992645;28;20042;-74
2022/10/26 02:06:29;;;;;;;11.15;7.20;;;11.10;99.90;;;;;;4977170;28;20034;-74
2022/10/26 02:09:03;;;;;;;11.77;7.15;;;11.00;99.90;;;;;;4989209;28;20047;-74
2022/10/26 02:11:46;;;;;;;11.80;7.28;;;11.00;99.90;;;;;;4989488;28;20069;-74
2022/10/26 02:14:43;;;;;;;11.68;6.65;;;10.90;99.90;;;;;;4990142;28;20042;-74
2022/10/26 02:17:29;;;;;;;11.10;7.18;;;11.00;99.90;;;;;;4977774;28;20042;-74
2022/10/26 02:20:07;;;;;;;11.65;7.05;;;10.90;99.90;;;;;;5007725;28;20042;-75
2022/10/26 02:22:36;;;;;;;12.57;7.43;;;10.90;99.90;;;;;;5009895;28;20054;-74
2022/10/26 02:25:10;;;;;;;11.88;7.45;;;10.90;99.90;;;;;;4991225;28;20046;-74
2022/10/26 02:27:43;;;;;;;11.25;7.22;;;10.90;99.90;;;;;;5025984;28;20066;-74
2022/10/26 02:30:11;;;;;;;12.68;7.68;;;10.90;99.90;;;;;;5009027;28;20050;-74
2022/10/26 02:32:39;;;;;;;11.68;7.22;;;10.90;99.90;;;;;;5010430;28;20034;-74
2022/10/26 02:35:05;;;;;;;11.70;7.40;;;10.90;99.90;;;;;;4977043;28;20042;-74
2022/10/26 02:37:34;;;;;;;13.25;7.82;;;10.90;99.90;;;;;;4992424;28;20042;-74
2022/10/26 02:40:07;;;;;;;12.48;7.90;;;10.90;99.90;;;;;;4989542;28;20092;-74
2022/10/26 02:42:34;;;;;;;12.35;7.53;;;10.90;99.90;;;;;;4993243;28;20062;-74
2022/10/26 02:45:06;;;;;;;12.15;8.20;;;10.80;99.90;;;;;;5022250;28;20069;-74
2022/10/26 02:47:32;;;;;;;12.20;7.53;;;10.80;99.90;;;;;;4976590;28;20045;-74
2022/10/26 02:49:58;;;;;;;12.73;7.45;;;10.80;99.90;;;;;;4991267;28;20401;-74
2022/10/26 02:52:47;;;;;;;12.60;7.50;;;10.70;99.90;;;;;;4993265;28;20117;-74
2022/10/26 02:55:26;;;;;;;12.43;7.65;;;10.60;99.90;;;;;;4987392;28;20061;-74
2022/10/26 02:58:01;;;;;;;11.32;7.07;;;10.60;99.90;;;;;;4976659;28;20053;-74
2022/10/26 03:00:27;;;;;;;10.80;7.03;;;10.50;99.90;;;;;;4989515;28;20053;-74
2022/10/26 03:02:56;;;;;;;10.60;6.70;;;10.50;99.90;;;;;;5016573;28;20041;-74
2022/10/26 03:05:31;;;;;;;10.38;6.72;;;10.40;99.90;;;;;;4976222;28;20109;-75
2022/10/26 03:07:57;;;;;;;11.65;7.05;;;10.40;99.90;;;;;;4990999;28;20039;-74
2022/10/26 03:10:24;;;;;;;12.50;7.07;;;10.30;99.90;;;;;;4974956;28;20042;-74
2022/10/26 03:12:50;;;;;;;13.43;8.00;;;10.40;99.90;;;;;;5007165;28;20042;-74
2022/10/26 03:15:16;;;;;;;14.18;8.75;;;10.40;99.90;;;;;;4993409;28;20042;-74
2022/10/26 03:17:42;;;;;;;13.30;8.85;;;10.40;99.90;;;;;;4992045;28;20100;-74
2022/10/26 03:20:09;;;;;;;14.88;8.82;;;10.40;99.90;;;;;;5002039;28;20088;-74
2022/10/26 03:22:34;;;;;;;13.88;9.30;;;10.30;99.90;;;;;;4991769;28;20551;-74
2022/10/26 03:25:00;;;;;;;14.23;9.13;;;10.20;99.90;;;;;;4987467;28;20041;-74
2022/10/26 03:27:26;;;;;;;13.10;9.07;;;10.30;99.90;;;;;;5008229;28;20038;-74
2022/10/26 03:29:52;;;;;;;15.48;9.68;;;10.30;99.90;;;;;;4990966;28;20038;-74
2022/10/26 03:32:18;;;;;;;14.23;9.82;;;10.30;99.90;;;;;;4996271;28;20042;-74
2022/10/26 03:34:44;;;;;;;13.90;9.20;;;10.30;99.90;;;;;;5009127;28;20045;-74
2022/10/26 03:37:09;;;;;;;15.90;11.05;;;10.30;99.90;;;;;;5020816;28;20035;-74
2022/10/26 03:39:35;;;;;;;13.73;9.43;;;10.20;99.90;;;;;;4990625;28;20046;-75
2022/10/26 03:42:00;;;;;;;14.30;9.50;;;10.20;99.90;;;;;;4976243;28;20038;-74
2022/10/26 03:44:26;;;;;;;14.07;9.20;;;10.20;99.90;;;;;;4991048;28;20495;-74
2022/10/26 03:46:52;;;;;;;14.98;9.52;;;10.20;99.90;;;;;;5001824;28;20050;-74
2022/10/26 03:49:17;;;;;;;13.77;8.88;;;10.20;99.90;;;;;;5006711;28;20489;-74
2022/10/26 03:51:43;;;;;;;13.00;9.30;;;10.10;99.90;;;;;;4991635;28;20130;-74
2022/10/26 03:54:08;;;;;;;13.25;9.48;;;10.10;99.90;;;;;;4975577;28;20158;-74
2022/10/26 03:56:34;;;;;;;14.38;9.68;;;10.10;99.90;;;;;;5008065;28;20035;-74
2022/10/26 03:58:59;;;;;;;18.35;10.15;;;10.10;99.90;;;;;;4989776;28;20097;-74
2022/10/26 04:01:25;;;;;;;13.70;8.90;;;10.00;99.90;;;;;;5006932;28;20504;-74
2022/10/26 04:03:50;;;;;;;16.90;9.52;;;10.00;99.90;;;;;;4989210;28;20112;-74
2022/10/26 04:06:16;;;;;;;14.68;9.75;;;10.10;99.90;;;;;;4991663;28;20042;-74
2022/10/26 04:08:41;;;;;;;14.20;10.30;;;10.00;99.90;;;;;;5008968;28;20139;-74
2022/10/26 04:11:07;;;;;;;16.35;9.85;;;10.00;99.90;;;;;;4978355;28;20091;-74
2022/10/26 04:13:33;;;;;;;16.25;9.68;;;10.00;99.90;;;;;;4972834;28;20092;-74
2022/10/26 04:15:58;;;;;;;15.80;10.95;;;10.00;99.90;;;;;;4988624;28;20125;-73
2022/10/26 04:18:24;;;;;;;16.92;10.52;;;10.00;99.90;;;;;;4975704;28;20038;-73
2022/10/26 04:20:49;;;;;;;17.60;10.35;;;10.00;99.90;;;;;;4973639;28;20038;-74
2022/10/26 04:23:17;;;;;;;15.55;10.75;;;10.00;99.90;;;;;;4990753;28;20045;-74
2022/10/26 04:25:43;;;;;;;16.02;10.48;;;10.00;99.90;;;;;;4973497;28;20124;-73
2022/10/26 04:28:11;;;;;;;17.92;11.30;;;10.10;99.90;;;;;;4992203;28;20047;-74
2022/10/26 04:30:37;;;;;;;17.67;11.25;;;10.10;99.90;;;;;;4974490;28;20034;-74
2022/10/26 04:33:03;;;;;;;17.33;10.82;;;10.10;99.90;;;;;;4974968;28;20061;-74
2022/10/26 04:35:29;;;;;;;16.42;11.48;;;10.10;99.90;;;;;;5008769;28;20086;-73
2022/10/26 04:38:03;;;;;;;17.52;12.05;;;10.10;99.90;;;;;;4974367;28;20076;-74
2022/10/26 04:40:29;;;;;;;14.77;11.20;;;10.00;99.90;;;;;;4975288;28;20108;-74
2022/10/26 04:42:55;;;;;;;17.70;11.80;;;10.00;99.90;;;;;;4996867;28;20054;-74
2022/10/26 04:45:21;;;;;;;20.88;11.95;;;10.00;99.90;;;;;;4979386;28;20061;-74
2022/10/26 04:47:46;;;;;;;18.52;12.02;;;10.10;99.90;;;;;;4995495;28;20519;-73
2022/10/26 04:50:13;;;;;;;18.35;11.05;;;10.20;99.90;;;;;;4995013;28;20042;-74
2022/10/26 04:52:39;;;;;;;19.13;11.93;;;10.10;99.90;;;;;;4977545;28;20065;-74
2022/10/26 04:55:06;;;;;;;18.75;12.75;;;10.20;99.90;;;;;;4992355;28;20078;-74
2022/10/26 04:57:32;;;;;;;18.63;12.70;;;10.30;99.90;;;;;;4995237;28;20034;-73
2022/10/26 04:59:59;;;;;;;20.05;13.05;;;10.30;99.90;;;;;;4995138;28;20061;-74
2022/10/26 05:02:25;;;;;;;18.15;12.35;;;10.30;99.90;;;;;;5011380;28;20046;-74
2022/10/26 05:04:50;;;;;;;17.70;12.32;;;10.30;99.90;;;;;;4996079;28;20490;-73
2022/10/26 05:07:16;;;;;;;18.75;12.65;;;10.30;99.90;;;;;;5011082;28;20121;-74
2022/10/26 05:09:41;;;;;;;17.70;12.20;;;10.20;99.90;;;;;;5010826;28;20401;-74
2022/10/26 05:12:07;;;;;;;17.80;12.55;;;10.30;99.90;;;;;;5011991;28;20038;-74
2022/10/26 05:14:33;;;;;;;19.67;12.80;;;10.20;99.90;;;;;;5011409;28;20069;-74
2022/10/26 05:16:58;;;;;;;18.10;12.00;;;10.30;99.90;;;;;;4995279;28;20508;-74
2022/10/26 05:19:24;;;;;;;18.05;11.43;;;10.40;99.90;;;;;;5025200;28;20404;-74
2022/10/26 05:21:52;;;;;;;32.33;25.63;;;10.60;99.90;;;;;;4994600;28;20073;-74
2022/10/26 05:24:18;;;;;;;30.30;22.77;;;10.80;99.90;;;;;;4991046;28;20057;-74
2022/10/26 05:26:43;;;;;;;26.15;19.80;;;10.80;99.90;;;;;;4993508;28;20038;-74
2022/10/26 05:29:09;;;;;;;21.77;18.00;;;10.80;99.90;;;;;;4994529;28;20100;-74
2022/10/26 05:31:34;;;;;;;20.48;14.05;;;10.70;99.90;;;;;;4972292;28;20117;-74
2022/10/26 05:34:00;;;;;;;16.70;12.90;;;10.60;99.90;;;;;;4984216;28;20044;-74
2022/10/26 05:36:25;;;;;;;18.58;12.45;;;10.60;99.90;;;;;;4980488;28;20039;-74
2022/10/26 05:38:51;;;;;;;19.83;12.52;;;10.60;99.90;;;;;;4978474;28;20042;-74
2022/10/26 05:41:16;;;;;;;22.42;12.27;;;10.50;99.90;;;;;;4984427;28;20070;-74
2022/10/26 05:43:42;;;;;;;18.63;11.90;;;10.50;99.90;;;;;;4989517;28;20050;-74
2022/10/26 05:46:07;;;;;;;17.02;11.48;;;10.40;99.90;;;;;;4992330;28;20042;-74
2022/10/26 05:48:33;;;;;;;16.85;11.95;;;10.40;99.90;;;;;;4978428;28;20408;-74
2022/10/26 05:51:00;;;;;;;23.10;13.23;;;10.40;99.90;;;;;;4993628;28;20130;-74
2022/10/26 05:53:26;;;;;;;17.38;11.70;;;10.40;99.90;;;;;;4992506;28;20507;-74
2022/10/26 05:55:53;;;;;;;16.35;11.82;;;10.40;99.90;;;;;;5025181;28;20049;-74
2022/10/26 05:58:19;;;;;;;19.67;12.38;;;10.40;99.90;;;;;;4992945;28;20058;-74
2022/10/26 06:00:48;;;;;;;17.35;11.63;;;10.30;99.90;;;;;;5026603;28;20096;-74
2022/10/26 06:03:34;;;;;;;19.40;11.75;;;10.30;99.90;;;;;;5026257;28;20042;-74
2022/10/26 06:06:00;;;;;;;16.02;11.27;;;10.40;99.90;;;;;;4977655;28;20038;-74
2022/10/26 06:08:27;;;;;;;17.75;11.68;;;10.60;99.90;;;;;;4993159;28;20374;-74
2022/10/26 06:10:55;;;;;;;17.73;11.55;;;10.50;99.90;;;;;;4993797;28;20034;-74
2022/10/26 06:13:21;;;;;;;18.58;11.73;;;10.50;99.90;;;;;;4992657;28;20034;-74
2022/10/26 06:16:27;;;;;;;18.85;11.60;;;10.60;99.90;;;;;;4994469;28;20126;-75
2022/10/26 06:19:08;;;;;;;19.98;11.82;;;10.60;99.90;;;;;;4974928;28;20042;-74
2022/10/26 06:21:52;;;;;;;16.52;11.70;;;10.60;99.90;;;;;;4993650;28;20034;-75
2022/10/26 06:24:29;;;;;;;18.67;12.30;;;10.50;99.90;;;;;;4994331;28;20070;-74
2022/10/26 06:27:11;;;;;;;19.33;12.82;;;10.50;99.90;;;;;;4976892;28;20408;-75
2022/10/26 06:29:39;;;;;;;;;;;10.50;99.90;;;;;;4977917;28;20423;-74
2022/10/26 06:32:08;;;;;;;17.35;11.52;;;10.50;99.90;;;;;;5025450;28;19918;-75
2022/10/26 06:34:35;;;;;;;16.77;10.63;;;10.50;99.90;;;;;;4992626;28;20228;-75
2022/10/26 06:37:01;;;;;;;17.85;11.13;;;10.50;99.90;;;;;;4975558;28;20037;-74
2022/10/26 06:39:29;;;;;;;15.18;10.95;;;10.50;99.90;;;;;;4976135;28;20242;-74
2022/10/26 06:41:56;;;;;;;18.13;11.90;;;10.50;99.90;;;;;;4992252;28;20053;-74
2022/10/26 06:44:23;;;;;;;15.18;11.18;;;10.50;99.90;;;;;;4982023;28;20628;-74
2022/10/26 06:46:56;;;;;;;14.63;10.38;;;10.60;99.90;;;;;;4997573;28;20038;-74
2022/10/26 06:49:35;;;;;;;15.52;10.25;;;10.60;99.90;;;;;;5009939;28;20491;-74
2022/10/26 06:52:09;;;;;;;12.75;7.20;;;10.70;99.90;;;;;;4974440;28;20041;-73
2022/10/26 06:55:01;;;;;;;15.40;9.55;;;10.70;99.90;;;;;;4975383;28;20038;-74
2022/10/26 06:57:32;;;;;;;12.70;8.77;;;10.80;99.90;;;;;;5023343;28;20061;-74
2022/10/26 07:00:08;;;;;;;14.70;9.37;;;10.80;99.90;;;;;;4993624;28;20054;-75
2022/10/26 07:02:33;;;;;;;15.27;9.15;;;10.80;99.90;;;;;;5009924;28;20077;-75
2022/10/26 07:04:59;;;;;;;16.75;9.30;;;10.80;99.90;;;;;;4993804;28;20136;-75
2022/10/26 07:07:27;;;;;;;14.40;8.93;;;10.90;99.90;;;;;;4993192;28;20038;-75
2022/10/26 07:09:53;;;;;;;15.82;9.30;;;10.90;99.90;;;;;;4993662;28;20069;-75
2022/10/26 07:12:19;;;;;;;15.15;9.45;;;10.90;99.90;;;;;;4993396;28;20489;-75
2022/10/26 07:14:44;;;;;;;15.32;8.93;;;10.90;99.90;;;;;;4992677;28;20050;-75
2022/10/26 07:17:10;;;;;;;18.35;9.40;;;10.90;99.90;;;;;;4992165;28;20485;-75
2022/10/26 07:19:36;;;;;;;13.85;8.65;;;10.90;99.90;;;;;;4992411;28;20042;-75
2022/10/26 07:22:02;;;;;;;13.35;7.95;;;11.00;99.90;;;;;;4993514;28;20129;-75
2022/10/26 07:24:28;;;;;;;12.18;7.65;;;11.10;99.90;;;;;;4977038;28;20046;-75
2022/10/26 07:26:55;;;;;;;14.00;6.95;;;11.40;99.90;;;;;;4993449;28;20053;-75
2022/10/26 07:29:24;;;;;;;12.35;7.55;;;11.50;99.90;;;;;;4992932;28;20078;-75
2022/10/26 07:31:50;;;;;;;12.25;7.18;;;11.60;99.90;;;;;;4976936;28;20080;-75
2022/10/26 07:34:16;;;;;;;12.35;6.88;;;11.60;99.90;;;;;;4993021;28;20448;-75
2022/10/26 07:36:42;;;;;;;14.27;7.22;;;11.80;99.90;;;;;;4992982;28;20097;-75
2022/10/26 07:39:07;;;;;;;12.15;7.05;;;11.90;99.90;;;;;;4992891;28;20038;-75
2022/10/26 07:41:33;;;;;;;12.32;7.35;;;11.80;99.90;;;;;;4993237;28;20514;-75
2022/10/26 07:43:59;;;;;;;10.50;7.32;;;11.70;99.90;;;;;;4976917;28;20390;-75
2022/10/26 07:46:25;;;;;;;11.82;6.88;;;11.90;99.90;;;;;;4976710;28;20044;-75
2022/10/26 07:48:51;;;;;;;10.73;6.93;;;12.00;99.90;;;;;;4992686;28;20508;-75
2022/10/26 07:51:17;;;;;;;11.55;6.47;;;12.00;99.90;;;;;;4976537;28;20048;-75
2022/10/26 07:53:43;;;;;;;11.48;6.72;;;12.00;99.90;;;;;;5025739;28;20047;-75
2022/10/26 07:56:09;;;;;;;9.68;6.10;;;12.00;99.90;;;;;;4992703;28;20125;-75
2022/10/26 07:58:35;;;;;;;10.82;4.90;;;12.10;99.90;;;;;;5008670;28;20076;-75
2022/10/26 08:01:19;;;;;;;10.82;5.30;;;12.30;99.90;;;;;;4992659;28;20393;-75
2022/10/26 08:03:45;;;;;;;10.65;5.30;;;12.20;99.90;;;;;;4976655;28;20073;-75
2022/10/26 08:06:11;;;;;;;9.90;5.05;;;12.30;99.90;;;;;;4976475;28;20068;-75
2022/10/26 08:08:37;;;;;;;10.45;4.68;;;12.40;99.90;;;;;;4976366;28;20484;-76
2022/10/26 08:11:03;;;;;;;9.70;4.43;;;12.50;99.90;;;;;;4976407;28;20046;-75
2022/10/26 08:13:29;;;;;;;10.13;4.35;;;12.50;99.90;;;;;;4976359;28;20041;-75
2022/10/26 08:16:00;;;;;;;9.35;4.43;;;12.70;99.90;;;;;;4974812;28;20121;-75
2022/10/26 08:18:26;;;;;;;8.10;3.72;;;12.80;99.90;;;;;;4996433;28;20084;-75
2022/10/26 08:20:51;;;;;;;10.02;4.50;;;12.90;99.90;;;;;;4983031;28;20081;-75
2022/10/26 08:23:17;;;;;;;9.90;4.35;;;12.90;99.90;;;;;;4982722;28;20499;-75
2022/10/26 08:25:42;;;;;;;8.35;4.85;;;12.90;99.90;;;;;;4998944;28;20089;-75
2022/10/26 08:28:08;;;;;;;9.82;4.57;;;12.90;99.90;;;;;;4998902;28;20046;-76
2022/10/26 08:30:34;;;;;;;9.88;4.65;;;12.90;99.90;;;;;;4998866;28;20034;-76
2022/10/26 08:33:01;;;;;;;13.38;3.95;;;12.90;99.90;;;;;;4999163;28;20037;-75
2022/10/26 08:35:27;;;;;;;11.38;4.80;;;13.00;99.90;;;;;;4982740;28;20073;-76
2022/10/26 08:37:53;;;;;;;7.97;4.22;;;13.10;99.90;;;;;;4998750;28;20082;-76
2022/10/26 08:40:23;;;;;;;9.18;4.68;;;13.10;99.90;;;;;;4998745;28;20619;-76
2022/10/26 08:42:55;;;;;;;11.18;4.68;;;13.20;99.90;;;;;;4999081;28;20065;-76
2022/10/26 08:45:31;;;;;;;10.20;4.30;;;13.30;99.90;;;;;;4981979;28;20046;-76
2022/10/26 08:48:05;;;;;;;8.38;4.55;;;13.40;99.90;;;;;;4999028;28;20435;-75
2022/10/26 08:50:39;;;;;;;8.13;4.28;;;13.40;99.90;;;;;;4982429;28;20504;-76
2022/10/26 08:53:28;;;;;;;12.35;4.10;;;13.50;99.90;;;;;;4982758;28;20408;-76
2022/10/26 08:56:03;;;;;;;9.57;4.47;;;13.60;99.90;;;;;;4998742;28;20034;-75
2022/10/26 08:58:39;;;;;;;9.40;4.55;;;13.70;99.90;;;;;;4998626;28;20076;-75
2022/10/26 09:01:06;;;;;;;10.20;4.28;;;13.70;99.90;;;;;;4998785;28;20043;-76
2022/10/26 09:03:32;;;;;;;8.40;3.70;;;13.90;99.90;;;;;;4982402;28;20297;-76
2022/10/26 09:06:16;;;;;;;8.25;4.15;;;14.10;99.90;;;;;;4998623;28;20081;-76
2022/10/26 09:09:08;;;;;;;9.82;3.97;;;14.20;99.90;;;;;;4981441;28;20504;-76
2022/10/26 09:11:43;;;;;;;9.00;4.00;;;14.20;99.90;;;;;;4998555;28;20125;-76
2022/10/26 09:14:16;;;;;;;8.13;4.00;;;14.20;99.90;;;;;;4998507;28;20088;-75
2022/10/26 09:17:01;;;;;;;8.45;3.67;;;14.20;99.90;;;;;;4982546;28;20038;-76
2022/10/26 09:19:34;;;;;;;7.28;3.60;;;14.40;99.90;;;;;;4998347;28;20052;-76
2022/10/26 09:22:26;;;;;;;8.63;3.85;;;14.60;99.90;;;;;;4998537;28;20046;-76
2022/10/26 09:24:54;;;;;;;9.57;4.22;;;14.60;99.90;;;;;;4993203;28;20404;-78
2022/10/26 09:27:27;;;;;;;8.00;3.40;;;14.60;99.90;;;;;;4998740;28;20392;-79
2022/10/26 09:29:59;;;;;;;9.95;3.80;;;14.60;99.90;;;;;;4980232;28;20038;-79
2022/10/26 09:32:33;;;;;;;6.47;3.10;;;14.70;99.90;;;;;;4979507;28;20048;-79
2022/10/26 09:35:03;;;;;;;9.45;3.72;;;14.80;99.90;;;;;;4995267;28;20459;-79
2022/10/26 09:37:39;;;;;;;8.23;3.17;;;14.90;99.90;;;;;;4978209;28;20374;-80
2022/10/26 09:40:32;;;;;;;11.80;3.85;;;14.90;99.90;;;;;;4995112;28;20157;-80
2022/10/26 09:43:14;;;;;;;11.15;3.83;;;14.90;99.90;;;;;;5007864;28;20500;-79
2022/10/26 09:45:46;;;;;;;7.97;3.85;;;14.90;99.90;;;;;;4997077;28;20038;-79
2022/10/26 09:48:19;;;;;;;9.82;3.30;;;14.90;99.90;;;;;;5024599;28;20042;-79
2022/10/26 09:50:48;;;;;;;7.90;3.00;;;15.10;99.90;;;;;;4985582;28;20043;-80
2022/10/26 09:53:14;;;;;;;7.80;3.60;;;15.20;99.90;;;;;;5023671;28;20042;-78
2022/10/26 09:55:54;;;;;;;7.40;3.05;;;15.40;99.90;;;;;;4979051;28;20413;-81
2022/10/26 09:58:26;;;;;;;9.05;3.13;;;15.40;99.90;;;;;;4994142;28;20057;-81
2022/10/26 10:00:53;;;;;;;6.90;2.90;;;15.50;99.90;;;;;;4993615;28;20129;-81
2022/10/26 10:03:25;;;;;;;8.98;2.85;;;15.60;99.90;;;;;;4993262;28;20499;-79
2022/10/26 10:05:52;;;;;;;6.78;2.78;;;15.50;99.90;;;;;;4977569;28;20053;-78
2022/10/26 10:08:22;;;;;;;5.95;2.40;;;15.50;99.90;;;;;;5009225;28;20050;-78
2022/10/26 10:11:06;;;;;;;6.18;2.70;;;15.40;99.90;;;;;;5010835;28;20520;-79
2022/10/26 10:13:37;;;;;;;8.10;3.03;;;15.50;99.90;;;;;;4992244;28;20093;-78
2022/10/26 10:16:07;;;;;;;6.20;3.00;;;15.60;99.90;;;;;;4994634;28;20488;-78
2022/10/26 10:18:33;;;;;;;6.18;2.80;;;15.60;99.90;;;;;;4973093;28;20436;-79
2022/10/26 10:21:00;;;;;;;6.97;2.90;;;15.80;99.90;;;;;;4972051;28;20053;-78
2022/10/26 10:23:29;;;;;;;7.43;2.67;;;15.80;99.90;;;;;;4992891;28;20039;-79
2022/10/26 10:26:09;;;;;;;7.10;3.00;;;15.80;99.90;;;;;;4978075;28;20523;-79
2022/10/26 10:28:36;;;;;;;8.35;2.83;;;15.90;99.90;;;;;;4994002;28;20058;-79
2022/10/26 10:31:20;;;;;;;8.43;3.05;;;15.90;99.90;;;;;;4977926;28;20046;-78
2022/10/26 10:33:45;;;;;;;9.20;3.17;;;16.00;99.90;;;;;;4993445;28;20121;-78
2022/10/26 10:36:18;;;;;;;6.95;2.85;;;16.00;99.90;;;;;;4994436;28;20081;-78
2022/10/26 10:38:46;;;;;;;8.38;3.38;;;16.10;99.90;;;;;;4992791;28;20039;-78
2022/10/26 10:41:18;;;;;;;11.07;3.30;;;16.10;99.90;;;;;;4992622;28;20038;-78
2022/10/26 10:43:48;;;;;;;;;;;16.20;99.90;;;;;;4989352;28;20038;-77
2022/10/26 10:46:20;;;;;;;5.80;2.67;;;16.20;99.90;;;;;;5026656;28;20459;-68
2022/10/26 10:48:49;;;;;;;7.68;2.90;;;16.20;99.90;;;;;;4993197;28;20129;-76
2022/10/26 10:51:21;;;;;;;9.55;3.38;;;16.20;99.90;;;;;;4975465;28;20053;-75
2022/10/26 10:53:50;;;;;;;7.47;3.10;;;16.30;99.90;;;;;;4976746;28;20034;-76
2022/10/26 10:56:31;;;;;;;8.95;3.28;;;16.30;99.90;;;;;;4986127;28;20042;-75
2022/10/26 10:59:34;;;;;;;7.72;2.90;;;16.30;99.90;;;;;;5013256;28;20176;-75
2022/10/26 11:02:18;;;;;;;8.05;2.90;;;16.30;99.90;;;;;;4977269;28;20080;-75
2022/10/26 11:05:06;;;;;;;9.48;3.10;;;16.30;99.90;;;;;;5009952;28;20042;-75
2022/10/26 11:07:43;;;;;;;7.15;2.72;;;16.30;99.90;;;;;;4976564;28;20089;-75
2022/10/26 11:10:16;;;;;;;6.80;2.90;;;16.30;99.90;;;;;;4990938;28;20042;-75
2022/10/26 11:12:58;;;;;;;6.80;2.75;;;16.40;99.90;;;;;;5006636;28;20042;-75
2022/10/26 11:15:27;;;;;;;7.63;2.53;;;16.60;99.90;;;;;;4990239;28;20035;-76
2022/10/26 11:18:15;;;;;;;8.10;3.15;;;16.70;99.90;;;;;;5010266;28;20049;-76
2022/10/26 11:20:56;;;;;;;7.95;2.92;;;16.70;99.90;;;;;;4992307;28;20046;-75
2022/10/26 11:23:32;;;;;;;7.35;2.70;;;16.70;99.90;;;;;;4977152;28;20049;-76
2022/10/26 11:26:12;;;;;;;7.15;2.53;;;16.80;99.90;;;;;;5008515;28;20046;-76
2022/10/26 11:28:57;;;;;;;8.05;2.92;;;16.90;99.90;;;;;;5025978;28;20389;-76
2022/10/26 11:31:30;;;;;;;8.32;2.83;;;16.90;99.90;;;;;;5009230;28;20046;-75
2022/10/26 11:34:04;;;;;;;8.27;3.13;;;16.90;99.90;;;;;;4976895;28;20073;-76
2022/10/26 11:36:33;;;;;;;8.82;2.90;;;16.90;99.90;;;;;;4976606;28;20113;-76
2022/10/26 11:39:32;;;;;;;5.75;2.63;;;16.90;99.90;;;;;;4976522;28;20034;-76
2022/10/26 11:42:15;;;;;;;7.15;3.25;;;16.90;99.90;;;;;;4992922;28;20077;-75
2022/10/26 11:44:50;;;;;;;8.90;3.05;;;17.00;99.90;;;;;;4983332;28;20516;-75
2022/10/26 11:47:23;;;;;;;9.05;3.38;;;17.00;99.90;;;;;;4991072;28;20045;-75
2022/10/26 11:50:03;;;;;;;10.07;3.10;;;17.00;99.90;;;;;;4992933;28;20042;-76
2022/10/26 11:52:42;;;;;;;6.70;2.88;;;17.00;99.90;;;;;;4990030;28;20034;-76
2022/10/26 11:55:09;;;;;;;8.48;3.33;;;17.00;99.90;;;;;;5008051;28;20050;-76
2022/10/26 11:57:36;;;;;;;9.07;3.38;;;17.00;99.90;;;;;;5007889;28;20038;-75
2022/10/26 12:00:17;;;;;;;12.18;3.40;;;17.10;99.90;;;;;;4997016;28;20447;-76
2022/10/26 12:02:52;;;;;;;8.70;2.53;;;17.20;99.90;;;;;;5012390;28;20055;-76
2022/10/26 12:05:20;;;;;;;8.63;3.08;;;17.20;99.90;;;;;;4979218;28;20038;-76
2022/10/26 12:07:57;;;;;;;7.53;3.20;;;17.20;99.90;;;;;;4999160;28;20381;-76
2022/10/26 12:10:34;;;;;;;7.75;2.92;;;17.30;99.90;;;;;;4998876;28;20048;-75
2022/10/26 12:13:27;;;;;;;8.70;3.50;;;17.30;99.90;;;;;;4976465;28;20038;-76
2022/10/26 12:16:00;;;;;;;8.40;3.13;;;17.30;99.90;;;;;;5007888;28;20547;-76
2022/10/26 12:18:51;;;;;;;7.95;2.65;;;17.30;99.90;;;;;;5008856;28;20038;-76
2022/10/26 12:21:17;;;;;;;7.78;3.15;;;17.30;99.90;;;;;;5007011;28;20042;-76
2022/10/26 12:23:57;;;;;;;11.27;3.38;;;17.40;99.90;;;;;;4978745;28;20492;-76
2022/10/26 12:26:23;;;;;;;9.95;3.30;;;17.40;99.90;;;;;;4990014;28;20042;-76
2022/10/26 12:29:01;;;;;;;6.88;2.85;;;17.40;99.90;;;;;;5024028;28;20046;-76
2022/10/26 12:31:35;;;;;;;9.27;2.78;;;17.40;99.90;;;;;;4986659;28;20038;-76
2022/10/26 12:34:10;;;;;;;8.57;3.15;;;17.40;99.90;;;;;;4992520;28;20042;-76
2022/10/26 12:36:53;;;;;;;9.75;3.15;;;17.50;99.90;;;;;;4991500;28;20098;-75
2022/10/26 12:39:31;;;;;;;5.90;2.65;;;17.60;99.90;;;;;;5008147;28;20199;-76
2022/10/26 12:42:09;;;;;;;8.57;3.05;;;17.60;99.90;;;;;;4992544;28;20039;-76
2022/10/26 12:44:44;;;;;;;8.35;2.95;;;17.70;99.90;;;;;;5007996;28;20092;-75
2022/10/26 12:47:30;;;;;;;7.05;2.55;;;17.70;99.90;;;;;;5008906;28;20038;-75
2022/10/26 12:50:04;;;;;;;7.40;3.20;;;17.70;99.90;;;;;;4974910;28;20049;-75
2022/10/26 12:52:50;;;;;;;9.10;3.33;;;17.70;99.90;;;;;;4992281;28;20042;-75
2022/10/26 12:55:39;;;;;;;10.10;3.00;;;17.70;99.90;;;;;;4972870;28;20070;-75
2022/10/26 12:58:27;;;;;;;8.05;3.35;;;17.70;99.90;;;;;;4989418;28;20089;-75
2022/10/26 13:00:58;;;;;;;6.95;2.65;;;17.70;99.90;;;;;;4992423;28;20043;-76